Time;durP1;ratioP1;P1;durP2;ratioP2;P2;SDS_P1;SDS_P2;PMS_P1;PMS_P2;Temp;Humidity;BMP_temperature;BMP_pressure;BME280_temperature;BME280_humidity;BME280_pressure;Samples;Min_cycle;Max_cycle;Signal;HPM_P1;HPM_P2
2024/03/04 00:01:57;;;;;;;45.50;21.57;;;;;;;;;;5141810;28;20023;-70
2024/03/04 00:04:22;;;;;;;41.17;20.50;;;;;;;;;;5141795;28;20051;-71
2024/03/04 00:06:48;;;;;;;41.33;20.90;;;;;;;;;;5123946;28;20177;-71
2024/03/04 00:09:15;;;;;;;43.60;22.23;;;;;;;;;;5114613;28;20642;-72
2024/03/04 00:11:40;;;;;;;39.17;19.07;;;;;;;;;;5130039;28;20076;-72
2024/03/04 00:14:10;;;;;;;40.93;20.10;;;;;;;;;;5111369;28;20023;-70
2024/03/04 00:16:35;;;;;;;39.00;20.53;;;;;;;;;;5094911;28;20023;-72
2024/03/04 00:19:02;;;;;;;35.87;19.57;;;;;;;;;;5131223;28;20058;-71
2024/03/04 00:21:27;;;;;;;40.97;20.43;;;;;;;;;;5098355;28;20031;-70
2024/03/04 00:23:53;;;;;;;47.67;22.33;;;;;;;;;;5115565;28;20083;-71
2024/03/04 00:26:19;;;;;;;44.43;21.43;;;;;;;;;;5112915;28;20057;-71
2024/03/04 00:28:45;;;;;;;40.80;21.43;;;;;;;;;;5111055;28;20051;-71
2024/03/04 00:31:12;;;;;;;47.10;22.40;;;;;;;;;;5130050;28;20411;-71
2024/03/04 00:33:38;;;;;;;43.93;22.07;;;;;;;;;;5130185;28;20027;-71
2024/03/04 00:36:08;;;;;;;43.00;21.87;;;;;;;;;;5129807;28;20459;-72
2024/03/04 00:38:35;;;;;;;42.83;21.87;;;;;;;;;;5094697;28;20112;-72
2024/03/04 00:41:01;;;;;;;41.40;22.30;;;;;;;;;;5112019;27;20138;-71
2024/03/04 00:43:27;;;;;;;42.47;22.40;;;;;;;;;;5116664;27;20054;-72
2024/03/04 00:45:53;;;;;;;42.87;21.97;;;;;;;;;;5094013;28;20028;-71
2024/03/04 00:48:18;;;;;;;42.27;22.47;;;;;;;;;;5094265;28;20030;-72
2024/03/04 00:50:44;;;;;;;46.70;22.57;;;;;;;;;;5094521;28;20039;-72
2024/03/04 00:53:10;;;;;;;46.70;21.77;;;;;;;;;;5112550;28;20368;-71
2024/03/04 00:55:37;;;;;;;43.30;23.53;;;;;;;;;;5112770;27;20067;-72
2024/03/04 00:58:03;;;;;;;43.57;20.77;;;;;;;;;;5114573;27;20117;-71
2024/03/04 01:00:28;;;;;;;44.67;23.53;;;;;;;;;;5114433;27;20110;-72
2024/03/04 01:02:54;;;;;;;42.67;21.53;;;;;;;;;;5113474;27;20470;-71
2024/03/04 01:05:20;;;;;;;41.07;22.43;;;;;;;;;;5132748;27;20063;-71
2024/03/04 01:07:45;;;;;;;47.13;23.60;;;;;;;;;;5132988;27;20467;-72
2024/03/04 01:10:11;;;;;;;45.20;23.47;;;;;;;;;;5115722;27;20479;-72
2024/03/04 01:12:37;;;;;;;42.67;21.57;;;;;;;;;;5116173;27;20023;-70
2024/03/04 01:15:04;;;;;;;41.53;21.30;;;;;;;;;;5133400;27;20262;-72
2024/03/04 01:17:29;;;;;;;48.23;23.37;;;;;;;;;;5133658;27;20110;-74
2024/03/04 01:19:55;;;;;;;50.73;22.33;;;;;;;;;;5114102;27;20137;-72
2024/03/04 01:22:20;;;;;;;45.60;22.60;;;;;;;;;;5114545;27;20031;-72
2024/03/04 01:24:50;;;;;;;42.53;21.37;;;;;;;;;;5114130;27;20035;-72
2024/03/04 01:27:16;;;;;;;46.37;21.87;;;;;;;;;;5132927;27;20023;-72
2024/03/04 01:29:42;;;;;;;45.27;22.13;;;;;;;;;;5114058;27;20039;-71
2024/03/04 01:32:11;;;;;;;46.17;22.10;;;;;;;;;;5113866;27;20039;-71
2024/03/04 01:34:39;;;;;;;42.90;21.93;;;;;;;;;;5113919;27;20118;-71
2024/03/04 01:37:08;;;;;;;44.93;22.63;;;;;;;;;;5113576;27;20175;-72
2024/03/04 01:39:34;;;;;;;45.33;23.00;;;;;;;;;;5114136;27;20031;-71
2024/03/04 01:42:01;;;;;;;43.10;22.07;;;;;;;;;;5109806;28;20034;-71
2024/03/04 01:44:36;;;;;;;46.20;21.87;;;;;;;;;;5093389;28;20079;-71
2024/03/04 01:47:04;;;;;;;49.20;22.97;;;;;;;;;;5112123;28;20055;-72
2024/03/04 01:49:35;;;;;;;41.87;21.43;;;;;;;;;;5076610;28;20057;-72
2024/03/04 01:52:02;;;;;;;43.83;20.47;;;;;;;;;;5111600;28;20059;-72
2024/03/04 01:54:28;;;;;;;45.43;22.37;;;;;;;;;;5102359;27;20611;-72
2024/03/04 01:56:54;;;;;;;38.60;22.33;;;;;;;;;;5113921;27;20616;-72
2024/03/04 01:59:22;;;;;;;41.67;22.20;;;;;;;;;;5132088;27;20102;-71
2024/03/04 02:01:49;;;;;;;47.47;22.17;;;;;;;;;;5132117;27;20478;-70
2024/03/04 02:04:15;;;;;;;46.40;21.97;;;;;;;;;;5131985;27;20066;-72
2024/03/04 02:06:44;;;;;;;46.17;21.53;;;;;;;;;;5113208;27;20027;-71
2024/03/04 02:09:12;;;;;;;49.33;22.07;;;;;;;;;;5131635;27;20538;-71
2024/03/04 02:11:39;;;;;;;47.40;21.77;;;;;;;;;;5132035;27;20038;-72
2024/03/04 02:14:06;;;;;;;45.90;21.73;;;;;;;;;;5113138;27;20493;-72
2024/03/04 02:16:32;;;;;;;43.67;21.87;;;;;;;;;;5131719;27;20527;-72
2024/03/04 02:18:57;;;;;;;48.20;23.00;;;;;;;;;;5113274;27;20035;-72
2024/03/04 02:21:26;;;;;;;47.47;22.63;;;;;;;;;;5131810;27;20102;-72
2024/03/04 02:23:52;;;;;;;44.23;21.70;;;;;;;;;;5131456;27;20027;-70
2024/03/04 02:26:17;;;;;;;47.33;22.97;;;;;;;;;;5131457;27;20031;-72
2024/03/04 02:28:43;;;;;;;46.53;22.37;;;;;;;;;;5096584;27;20023;-71
2024/03/04 02:31:10;;;;;;;40.93;21.07;;;;;;;;;;5113060;27;20315;-71
2024/03/04 02:33:37;;;;;;;37.13;21.37;;;;;;;;;;5113295;27;20031;-71
2024/03/04 02:36:04;;;;;;;41.07;22.43;;;;;;;;;;5113232;27;20091;-70
2024/03/04 02:38:31;;;;;;;42.67;20.37;;;;;;;;;;5131678;27;20027;-72
2024/03/04 02:40:59;;;;;;;39.70;21.63;;;;;;;;;;5112436;27;20027;-72
2024/03/04 02:43:26;;;;;;;41.73;21.23;;;;;;;;;;5115265;27;20114;-71
2024/03/04 02:45:52;;;;;;;45.47;21.20;;;;;;;;;;5091970;28;20047;-71
2024/03/04 02:48:17;;;;;;;46.27;23.63;;;;;;;;;;5092223;28;20031;-71
2024/03/04 02:50:43;;;;;;;40.43;22.27;;;;;;;;;;5110918;28;20047;-71
2024/03/04 02:53:09;;;;;;;40.97;20.87;;;;;;;;;;5092060;28;20470;-73
2024/03/04 02:55:37;;;;;;;45.87;23.43;;;;;;;;;;5110456;27;20072;-72
2024/03/04 02:58:08;;;;;;;41.77;22.60;;;;;;;;;;5130633;27;20478;-72
2024/03/04 03:00:34;;;;;;;42.87;21.47;;;;;;;;;;5131044;27;20027;-73
2024/03/04 03:03:00;;;;;;;51.80;21.73;;;;;;;;;;5130247;27;20388;-70
2024/03/04 03:05:26;;;;;;;46.27;23.63;;;;;;;;;;5130132;27;20117;-72
2024/03/04 03:07:52;;;;;;;44.50;21.17;;;;;;;;;;5112339;27;20027;-72
2024/03/04 03:10:18;;;;;;;49.50;23.30;;;;;;;;;;5130366;27;20038;-73
2024/03/04 03:12:43;;;;;;;48.20;23.17;;;;;;;;;;5112213;27;20027;-71
2024/03/04 03:15:10;;;;;;;48.57;21.57;;;;;;;;;;5112049;28;20031;-73
2024/03/04 03:17:36;;;;;;;44.33;21.27;;;;;;;;;;5130918;27;20027;-73
2024/03/04 03:20:16;;;;;;;43.80;20.73;;;;;;;;;;5112347;27;20035;-72
2024/03/04 03:22:43;;;;;;;41.13;20.00;;;;;;;;;;5130632;27;20083;-73
2024/03/04 03:25:08;;;;;;;45.13;23.00;;;;;;;;;;5130638;27;20031;-73
2024/03/04 03:27:34;;;;;;;43.20;20.40;;;;;;;;;;5112188;28;20043;-73
2024/03/04 03:29:59;;;;;;;53.20;21.10;;;;;;;;;;5112097;28;20498;-72
2024/03/04 03:32:25;;;;;;;43.03;21.13;;;;;;;;;;5112061;28;20092;-72
2024/03/04 03:34:50;;;;;;;45.10;21.67;;;;;;;;;;5130663;28;20027;-72
2024/03/04 03:37:16;;;;;;;42.53;20.80;;;;;;;;;;5111987;28;20471;-73
2024/03/04 03:39:43;;;;;;;44.80;21.93;;;;;;;;;;5112058;28;20033;-73
2024/03/04 03:42:11;;;;;;;40.77;21.30;;;;;;;;;;5125619;28;20106;-71
2024/03/04 03:44:36;;;;;;;39.10;21.70;;;;;;;;;;5110113;28;20030;-73
2024/03/04 03:47:03;;;;;;;41.37;21.80;;;;;;;;;;5090975;28;20024;-74
2024/03/04 03:49:29;;;;;;;39.93;19.10;;;;;;;;;;5091555;28;20035;-72
2024/03/04 03:51:54;;;;;;;40.90;21.43;;;;;;;;;;5091712;28;20372;-73
2024/03/04 03:54:20;;;;;;;39.93;19.53;;;;;;;;;;5117504;28;20043;-73
2024/03/04 03:56:45;;;;;;;44.40;20.33;;;;;;;;;;5130257;28;20027;-73
2024/03/04 03:59:11;;;;;;;46.30;22.30;;;;;;;;;;5111654;28;20031;-72
2024/03/04 04:01:36;;;;;;;43.23;19.93;;;;;;;;;;5111920;28;20073;-73
2024/03/04 04:04:02;;;;;;;49.37;22.60;;;;;;;;;;5111351;28;20042;-71
2024/03/04 04:06:28;;;;;;;46.73;20.67;;;;;;;;;;5112128;28;20520;-71
2024/03/04 04:08:53;;;;;;;47.27;20.47;;;;;;;;;;5112158;28;20114;-73
2024/03/04 04:11:19;;;;;;;46.27;21.70;;;;;;;;;;5111692;28;20134;-72
2024/03/04 04:13:45;;;;;;;46.00;22.77;;;;;;;;;;5112018;28;20031;-71
2024/03/04 04:16:11;;;;;;;44.13;20.50;;;;;;;;;;5114602;27;20027;-72
2024/03/04 04:18:36;;;;;;;48.37;22.10;;;;;;;;;;5134675;27;20054;-71
2024/03/04 04:21:03;;;;;;;49.10;21.77;;;;;;;;;;5134312;27;20061;-73
2024/03/04 04:23:28;;;;;;;45.30;21.10;;;;;;;;;;5115993;27;20050;-72
2024/03/04 04:25:54;;;;;;;46.83;20.30;;;;;;;;;;5115648;27;20078;-73
2024/03/04 04:28:20;;;;;;;48.47;21.03;;;;;;;;;;5115448;27;20573;-72
2024/03/04 04:30:46;;;;;;;45.13;19.70;;;;;;;;;;5138548;27;20023;-73
2024/03/04 04:33:11;;;;;;;41.37;20.87;;;;;;;;;;5126342;27;20073;-71
2024/03/04 04:35:37;;;;;;;40.40;19.73;;;;;;;;;;5131046;27;20077;-72
2024/03/04 04:38:03;;;;;;;42.03;21.37;;;;;;;;;;5105463;28;20084;-73
2024/03/04 04:40:30;;;;;;;45.07;20.77;;;;;;;;;;5113882;28;20028;-72
2024/03/04 04:42:56;;;;;;;43.20;19.57;;;;;;;;;;5094828;28;20034;-72
2024/03/04 04:45:24;;;;;;;40.67;20.47;;;;;;;;;;5095006;28;20046;-73
2024/03/04 04:47:50;;;;;;;44.97;21.70;;;;;;;;;;5095012;28;20032;-71
2024/03/04 04:50:16;;;;;;;42.73;19.90;;;;;;;;;;5094833;28;20538;-72
2024/03/04 04:52:41;;;;;;;39.77;19.03;;;;;;;;;;5082092;28;20035;-71
2024/03/04 04:55:07;;;;;;;40.60;20.20;;;;;;;;;;5121613;27;20061;-72
2024/03/04 04:57:32;;;;;;;49.50;21.97;;;;;;;;;;5115019;27;20030;-71
2024/03/04 04:59:58;;;;;;;44.20;21.23;;;;;;;;;;5133466;27;20459;-72
2024/03/04 05:02:23;;;;;;;48.57;22.27;;;;;;;;;;5115144;27;20027;-73
2024/03/04 05:04:49;;;;;;;40.73;21.27;;;;;;;;;;5111204;28;20504;-73
2024/03/04 05:07:14;;;;;;;40.47;20.07;;;;;;;;;;5110937;28;20027;-72
2024/03/04 05:09:40;;;;;;;43.87;20.90;;;;;;;;;;5094008;28;20411;-70
2024/03/04 05:12:06;;;;;;;44.30;19.50;;;;;;;;;;5090321;28;20058;-71
2024/03/04 05:14:32;;;;;;;47.57;21.07;;;;;;;;;;5091008;28;20453;-72
2024/03/04 05:16:58;;;;;;;47.33;21.30;;;;;;;;;;5091581;28;20035;-72
2024/03/04 05:19:27;;;;;;;43.37;21.27;;;;;;;;;;5092919;28;20028;-73
2024/03/04 05:21:53;;;;;;;44.93;20.77;;;;;;;;;;5091069;28;20031;-72
2024/03/04 05:24:18;;;;;;;46.63;21.13;;;;;;;;;;5090069;28;20028;-73
2024/03/04 05:26:44;;;;;;;45.97;19.87;;;;;;;;;;5090022;28;20472;-71
2024/03/04 05:29:10;;;;;;;45.10;20.23;;;;;;;;;;5074726;28;20036;-73
2024/03/04 05:31:51;;;;;;;38.00;20.27;;;;;;;;;;5070114;28;20506;-72
2024/03/04 05:34:16;;;;;;;43.40;19.63;;;;;;;;;;5069841;28;20332;-72
2024/03/04 05:36:45;;;;;;;39.73;20.07;;;;;;;;;;5069918;28;20563;-72
2024/03/04 05:39:12;;;;;;;44.10;20.73;;;;;;;;;;5071401;28;20062;-71
2024/03/04 05:41:39;;;;;;;42.50;20.43;;;;;;;;;;5078512;28;20028;-73
2024/03/04 05:44:04;;;;;;;43.40;19.87;;;;;;;;;;5090184;28;20541;-72
2024/03/04 05:46:30;;;;;;;45.80;19.83;;;;;;;;;;5091468;28;20024;-72
2024/03/04 05:48:56;;;;;;;44.30;20.07;;;;;;;;;;5089952;28;20581;-72
2024/03/04 05:51:21;;;;;;;42.13;20.23;;;;;;;;;;5091347;28;20028;-74
2024/03/04 05:53:48;;;;;;;44.67;22.60;;;;;;;;;;5090049;28;20067;-72
2024/03/04 05:56:14;;;;;;;43.63;19.90;;;;;;;;;;5089684;28;20039;-72
2024/03/04 05:58:40;;;;;;;41.73;20.47;;;;;;;;;;5090720;28;20108;-73
2024/03/04 06:01:06;;;;;;;41.03;19.67;;;;;;;;;;5090894;28;20170;-73
2024/03/04 06:03:32;;;;;;;45.70;20.57;;;;;;;;;;5094315;28;20126;-73
2024/03/04 06:05:58;;;;;;;46.47;21.47;;;;;;;;;;5093319;28;20031;-71
2024/03/04 06:08:23;;;;;;;43.17;20.10;;;;;;;;;;5111557;28;20027;-71
2024/03/04 06:10:49;;;;;;;44.80;20.63;;;;;;;;;;5093088;28;20080;-73
2024/03/04 06:13:15;;;;;;;48.67;20.77;;;;;;;;;;5111147;28;20079;-71
2024/03/04 06:15:40;;;;;;;41.13;20.20;;;;;;;;;;5095354;28;20508;-72
2024/03/04 06:18:06;;;;;;;55.87;29.37;;;;;;;;;;5072412;28;20039;-71
2024/03/04 06:20:31;;;;;;;44.20;21.13;;;;;;;;;;5090766;28;20067;-72
2024/03/04 06:22:57;;;;;;;55.50;21.93;;;;;;;;;;5118736;27;20494;-71
2024/03/04 06:25:23;;;;;;;47.70;21.53;;;;;;;;;;5111342;28;20020;-74
2024/03/04 06:27:50;;;;;;;54.33;22.33;;;;;;;;;;5092050;28;20031;-71
2024/03/04 06:30:17;;;;;;;51.57;20.57;;;;;;;;;;5110748;28;20031;-72
2024/03/04 06:32:42;;;;;;;51.27;21.50;;;;;;;;;;5092266;28;20562;-72
2024/03/04 06:35:08;;;;;;;64.87;21.87;;;;;;;;;;5110433;28;20106;-71
2024/03/04 06:37:33;;;;;;;51.17;20.53;;;;;;;;;;5092971;28;20054;-72
2024/03/04 06:39:59;;;;;;;57.60;23.33;;;;;;;;;;5110910;28;20106;-71
2024/03/04 06:42:25;;;;;;;56.20;20.97;;;;;;;;;;5091974;28;20031;-72
2024/03/04 06:44:50;;;;;;;52.33;21.00;;;;;;;;;;5092424;28;20117;-72
2024/03/04 06:47:16;;;;;;;59.57;21.03;;;;;;;;;;5088929;28;20032;-71
2024/03/04 06:49:41;;;;;;;54.97;23.53;;;;;;;;;;5082749;27;20466;-71
2024/03/04 06:52:08;;;;;;;55.17;21.80;;;;;;;;;;5101051;27;20106;-71
2024/03/04 06:54:33;;;;;;;60.37;22.63;;;;;;;;;;5111694;27;20126;-72
2024/03/04 06:56:59;;;;;;;51.60;21.23;;;;;;;;;;5100978;27;20063;-73
2024/03/04 06:59:25;;;;;;;64.50;24.73;;;;;;;;;;5119534;27;20027;-71
2024/03/04 07:01:50;;;;;;;52.60;21.80;;;;;;;;;;5080962;27;20142;-72
2024/03/04 07:04:16;;;;;;;45.80;19.90;;;;;;;;;;5100103;27;20406;-72
2024/03/04 07:06:41;;;;;;;45.23;20.83;;;;;;;;;;5101863;27;20372;-72
2024/03/04 07:09:09;;;;;;;59.07;21.93;;;;;;;;;;5107182;27;20043;-71
2024/03/04 07:11:34;;;;;;;40.57;20.03;;;;;;;;;;5094122;28;20144;-73
2024/03/04 07:14:00;;;;;;;48.53;20.63;;;;;;;;;;5114916;27;20031;-72
2024/03/04 07:16:25;;;;;;;41.23;19.23;;;;;;;;;;5100520;27;20026;-72
2024/03/04 07:18:52;;;;;;;42.77;19.93;;;;;;;;;;5115876;27;20455;-73
2024/03/04 07:21:20;;;;;;;46.20;19.63;;;;;;;;;;5085207;28;20028;-73
2024/03/04 07:23:45;;;;;;;46.43;23.10;;;;;;;;;;5089955;28;20039;-72
2024/03/04 07:26:12;;;;;;;49.10;19.87;;;;;;;;;;5090682;28;20448;-73
2024/03/04 07:28:43;;;;;;;51.87;20.57;;;;;;;;;;5109489;28;20122;-72
2024/03/04 07:31:09;;;;;;;46.63;20.63;;;;;;;;;;5108745;28;20454;-73
2024/03/04 07:33:35;;;;;;;61.80;23.10;;;;;;;;;;5089668;28;20372;-72
2024/03/04 07:36:01;;;;;;;52.10;21.70;;;;;;;;;;5074096;28;20053;-73
2024/03/04 07:38:26;;;;;;;39.90;17.97;;;;;;;;;;5090608;28;20434;-72
2024/03/04 07:40:52;;;;;;;50.53;21.00;;;;;;;;;;5086522;28;20032;-71
2024/03/04 07:43:17;;;;;;;57.63;21.10;;;;;;;;;;5089793;28;20023;-71
2024/03/04 07:45:43;;;;;;;55.63;19.77;;;;;;;;;;5098116;28;20471;-71
2024/03/04 07:48:09;;;;;;;49.35;20.52;;;;;;;;;;5099517;28;20039;-70
2024/03/04 07:50:34;;;;;;;54.78;23.27;;;;;;;;;;5094804;28;20059;-72
2024/03/04 07:53:00;;;;;;;49.92;22.10;;;;;;;;;;5106128;28;20034;-72
2024/03/04 07:55:26;;;;;;;44.45;20.75;;;;;;;;;;5125721;27;20298;-73
2024/03/04 07:57:51;;;;;;;45.80;21.00;;;;;;;;;;5109469;28;20031;-71
2024/03/04 08:00:17;;;;;;;53.35;20.98;;;;;;;;;;5115839;27;20663;-70
2024/03/04 08:02:43;;;;;;;60.72;22.92;;;;;;;;;;5086184;27;20064;-74
2024/03/04 08:05:09;;;;;;;42.20;20.13;;;;;;;;;;5055753;28;20044;-71
2024/03/04 08:07:39;;;;;;;53.13;22.27;;;;;;;;;;5062636;28;20037;-73
2024/03/04 08:10:08;;;;;;;50.65;22.98;;;;;;;;;;5067896;28;20154;-73
2024/03/04 08:12:35;;;;;;;51.22;22.33;;;;;;;;;;5066990;28;20024;-73
2024/03/04 08:15:02;;;;;;;63.92;22.50;;;;;;;;;;5072706;28;20036;-71
2024/03/04 08:17:28;;;;;;;50.78;20.23;;;;;;;;;;5070877;28;20527;-71
2024/03/04 08:19:56;;;;;;;43.72;20.73;;;;;;;;;;5071376;28;20518;-70
2024/03/04 08:22:28;;;;;;;51.58;21.52;;;;;;;;;;5029107;28;20035;-71
2024/03/04 08:24:53;;;;;;;50.35;21.25;;;;;;;;;;5069162;28;20032;-72
2024/03/04 08:27:22;;;;;;;56.38;23.23;;;;;;;;;;5071830;28;20036;-73
2024/03/04 08:29:50;;;;;;;56.05;22.77;;;;;;;;;;5067083;28;20044;-75
2024/03/04 08:32:15;;;;;;;50.95;20.65;;;;;;;;;;5068955;28;20023;-71
2024/03/04 08:34:47;;;;;;;53.40;21.95;;;;;;;;;;5071067;28;20024;-73
2024/03/04 08:37:13;;;;;;;57.55;23.08;;;;;;;;;;5069371;28;20016;-73
2024/03/04 08:39:39;;;;;;;62.58;23.55;;;;;;;;;;5076002;28;20028;-73
2024/03/04 08:42:05;;;;;;;51.47;21.48;;;;;;;;;;5063657;28;20055;-73
2024/03/04 08:44:34;;;;;;;58.50;23.35;;;;;;;;;;5071561;28;20025;-71
2024/03/04 08:46:59;;;;;;;58.55;23.10;;;;;;;;;;5073446;28;20021;-74
2024/03/04 08:49:28;;;;;;;56.40;22.98;;;;;;;;;;5071745;28;20042;-73
2024/03/04 08:51:54;;;;;;;53.92;23.13;;;;;;;;;;5075032;28;20653;-71
2024/03/04 08:54:20;;;;;;;57.70;22.05;;;;;;;;;;5068746;28;20108;-73
2024/03/04 08:56:46;;;;;;;53.28;21.70;;;;;;;;;;5067630;28;20028;-73
2024/03/04 08:59:12;;;;;;;53.90;21.40;;;;;;;;;;5068495;28;20146;-73
2024/03/04 09:01:41;;;;;;;62.25;22.90;;;;;;;;;;5067891;28;20024;-73
2024/03/04 09:04:07;;;;;;;55.38;20.95;;;;;;;;;;5082054;27;20039;-72
2024/03/04 09:06:33;;;;;;;57.15;25.20;;;;;;;;;;5090011;27;20032;-73
2024/03/04 09:08:59;;;;;;;52.67;21.23;;;;;;;;;;5110325;27;20093;-72
2024/03/04 09:11:24;;;;;;;51.63;21.73;;;;;;;;;;5089128;28;20027;-72
2024/03/04 09:13:50;;;;;;;54.17;22.38;;;;;;;;;;5105905;27;20088;-72
2024/03/04 09:16:17;;;;;;;55.38;21.95;;;;;;;;;;5089955;28;20031;-71
2024/03/04 09:18:43;;;;;;;54.80;22.85;;;;;;;;;;5091061;28;20140;-72
2024/03/04 09:21:09;;;;;;;51.00;22.25;;;;;;;;;;5071516;27;20084;-73
2024/03/04 09:23:35;;;;;;;52.92;21.42;;;;;;;;;;5094016;27;20366;-72
2024/03/04 09:26:00;;;;;;;54.83;23.38;;;;;;;;;;5068771;28;20046;-72
2024/03/04 09:28:26;;;;;;;59.72;22.48;;;;;;;;;;5088919;27;20126;-72
2024/03/04 09:30:52;;;;;;;57.95;22.75;;;;;;;;;;5089907;28;20092;-73
2024/03/04 09:33:18;;;;;;;59.90;23.48;;;;;;;;;;5084420;27;20027;-72
2024/03/04 09:35:46;;;;;;;48.17;21.15;;;;;;;;;;5084177;27;20309;-72
2024/03/04 09:38:11;;;;;;;62.63;22.80;;;;;;;;;;5077271;28;20510;-71
2024/03/04 09:40:40;;;;;;;51.92;22.65;;;;;;;;;;5107078;27;20080;-72
2024/03/04 09:43:09;;;;;;;52.67;21.75;;;;;;;;;;5090142;27;20035;-72
2024/03/04 09:45:36;;;;;;;49.85;23.13;;;;;;;;;;5066428;28;20036;-73
2024/03/04 09:48:03;;;;;;;50.55;21.77;;;;;;;;;;5103225;27;20058;-73
2024/03/04 09:50:30;;;;;;;50.08;21.00;;;;;;;;;;5091032;28;20210;-69
2024/03/04 09:52:57;;;;;;;43.97;20.35;;;;;;;;;;5109596;27;20036;-70
2024/03/04 09:55:23;;;;;;;51.80;21.08;;;;;;;;;;5087508;28;20551;-70
2024/03/04 09:57:50;;;;;;;51.63;20.42;;;;;;;;;;5091440;27;20041;-72
2024/03/04 10:00:17;;;;;;;53.83;21.48;;;;;;;;;;5092093;27;20115;-72
2024/03/04 10:02:47;;;;;;;50.25;20.75;;;;;;;;;;5089957;27;20062;-71
2024/03/04 10:05:14;;;;;;;58.85;19.80;;;;;;;;;;5089733;28;20509;-70
2024/03/04 10:07:41;;;;;;;42.47;19.17;;;;;;;;;;5119072;27;20023;-70
2024/03/04 10:10:12;;;;;;;42.00;20.08;;;;;;;;;;5109220;27;20035;-70
2024/03/04 10:12:38;;;;;;;51.92;21.02;;;;;;;;;;5087852;28;20031;-74
2024/03/04 10:15:06;;;;;;;48.60;21.00;;;;;;;;;;5096294;28;20479;-70
2024/03/04 10:17:32;;;;;;;44.75;20.05;;;;;;;;;;5110221;27;20365;-73
2024/03/04 10:20:02;;;;;;;50.65;20.73;;;;;;;;;;5088754;28;20120;-72
2024/03/04 10:22:35;;;;;;;45.47;19.02;;;;;;;;;;5079838;28;20023;-74
2024/03/04 10:25:09;;;;;;;49.00;21.20;;;;;;;;;;5090262;28;20092;-71
2024/03/04 10:27:39;;;;;;;47.40;20.77;;;;;;;;;;5093836;28;20080;-71
2024/03/04 10:30:14;;;;;;;45.08;19.73;;;;;;;;;;5067666;28;20031;-70
2024/03/04 10:32:45;;;;;;;45.85;20.10;;;;;;;;;;5082307;28;20039;-72
2024/03/04 10:35:11;;;;;;;43.72;21.88;;;;;;;;;;5094603;27;20046;-72
2024/03/04 10:37:38;;;;;;;40.55;20.10;;;;;;;;;;5107184;27;20428;-70
2024/03/04 10:40:04;;;;;;;41.58;19.38;;;;;;;;;;5110086;27;20027;-71
2024/03/04 10:42:30;;;;;;;45.60;20.42;;;;;;;;;;5089619;27;20030;-72
2024/03/04 10:44:56;;;;;;;48.90;19.73;;;;;;;;;;5085442;27;20031;-72
2024/03/04 10:47:22;;;;;;;46.00;20.83;;;;;;;;;;5111576;27;20026;-69
2024/03/04 10:49:50;;;;;;;48.47;20.77;;;;;;;;;;5112050;27;20399;-69
2024/03/04 10:52:17;;;;;;;42.75;19.73;;;;;;;;;;5094858;28;20026;-70
2024/03/04 10:54:43;;;;;;;45.78;20.65;;;;;;;;;;5074245;28;20496;-71
2024/03/04 10:57:27;;;;;;;41.63;18.58;;;;;;;;;;5104372;28;20103;-69
2024/03/04 11:00:26;;;;;;;47.83;20.60;;;;;;;;;;5090623;27;20118;-71
2024/03/04 11:03:09;;;;;;;41.63;18.50;;;;;;;;;;5115392;27;20049;-73
2024/03/04 11:05:42;;;;;;;51.20;21.15;;;;;;;;;;5077016;28;20044;-71
2024/03/04 11:08:18;;;;;;;45.00;19.48;;;;;;;;;;5091661;27;20035;-71
2024/03/04 11:11:14;;;;;;;44.40;19.92;;;;;;;;;;5098869;27;20509;-72
2024/03/04 11:13:58;;;;;;;44.08;18.60;;;;;;;;;;5074867;28;20050;-71
2024/03/04 11:16:35;;;;;;;46.20;21.75;;;;;;;;;;5084358;28;20023;-68
2024/03/04 11:19:23;;;;;;;46.85;19.00;;;;;;;;;;5088548;27;20571;-70
2024/03/04 11:21:50;;;;;;;46.42;19.20;;;;;;;;;;5104794;28;20479;-71
2024/03/04 11:24:17;;;;;;;44.80;20.80;;;;;;;;;;5091839;28;20487;-71
2024/03/04 11:26:43;;;;;;;45.20;20.30;;;;;;;;;;5079137;28;20031;-71
2024/03/04 11:29:10;;;;;;;37.55;18.80;;;;;;;;;;5089069;28;20151;-72
2024/03/04 11:31:37;;;;;;;46.05;18.83;;;;;;;;;;5073790;28;20059;-71
2024/03/04 11:34:12;;;;;;;36.15;18.40;;;;;;;;;;5073305;28;20036;-70
2024/03/04 11:36:39;;;;;;;37.40;19.08;;;;;;;;;;5074734;28;20471;-72
2024/03/04 11:39:13;;;;;;;41.17;19.00;;;;;;;;;;5089756;28;20020;-70
2024/03/04 11:41:41;;;;;;;40.95;19.52;;;;;;;;;;5108003;28;20071;-70
2024/03/04 11:44:09;;;;;;;46.83;22.20;;;;;;;;;;5109211;28;20073;-72
2024/03/04 11:46:44;;;;;;;49.70;21.75;;;;;;;;;;5109570;28;20378;-71
2024/03/04 11:49:29;;;;;;;42.83;20.77;;;;;;;;;;5090628;28;20040;-71
2024/03/04 11:52:20;;;;;;;44.20;19.40;;;;;;;;;;5083666;28;20032;-70
2024/03/04 11:54:51;;;;;;;40.03;18.75;;;;;;;;;;5100690;28;20031;-69
2024/03/04 11:57:20;;;;;;;39.03;19.83;;;;;;;;;;5095090;28;20031;-70
2024/03/04 11:59:58;;;;;;;40.60;19.00;;;;;;;;;;5107109;28;20034;-71
2024/03/04 12:02:44;;;;;;;39.95;19.10;;;;;;;;;;5107072;28;20039;-70
2024/03/04 12:05:10;;;;;;;40.40;19.73;;;;;;;;;;5104752;28;20434;-70
2024/03/04 12:07:35;;;;;;;36.55;19.20;;;;;;;;;;5087213;28;20107;-70
2024/03/04 12:10:05;;;;;;;38.47;17.52;;;;;;;;;;5087382;28;20145;-69
2024/03/04 12:12:46;;;;;;;43.63;17.92;;;;;;;;;;5101268;28;20074;-70
2024/03/04 12:15:11;;;;;;;39.72;19.75;;;;;;;;;;5090599;28;20055;-70
2024/03/04 12:17:38;;;;;;;39.95;20.25;;;;;;;;;;5093923;28;20131;-71
2024/03/04 12:20:07;;;;;;;39.95;19.13;;;;;;;;;;5073136;28;20465;-72
2024/03/04 12:22:32;;;;;;;43.42;20.65;;;;;;;;;;5090605;28;20075;-72
2024/03/04 12:25:09;;;;;;;37.45;18.85;;;;;;;;;;5081530;28;20058;-71
2024/03/04 12:27:36;;;;;;;37.58;18.48;;;;;;;;;;5078263;28;20027;-71
2024/03/04 12:30:17;;;;;;;35.00;17.92;;;;;;;;;;5075882;28;20503;-72
2024/03/04 12:32:47;;;;;;;33.35;17.35;;;;;;;;;;5087261;28;20028;-71
2024/03/04 12:35:23;;;;;;;38.55;20.20;;;;;;;;;;5086341;28;20287;-71
2024/03/04 12:37:50;;;;;;;36.47;18.13;;;;;;;;;;5105397;27;20483;-72
2024/03/04 12:40:21;;;;;;;30.45;16.95;;;;;;;;;;5108730;27;20030;-71
2024/03/04 12:42:59;;;;;;;31.92;16.08;;;;;;;;;;5092444;28;20035;-71
2024/03/04 12:45:25;;;;;;;31.60;17.95;;;;;;;;;;5092649;27;20524;-71
2024/03/04 12:47:53;;;;;;;34.38;16.15;;;;;;;;;;5114882;27;20052;-71
2024/03/04 12:50:20;;;;;;;32.42;16.58;;;;;;;;;;5118358;27;20062;-72
2024/03/04 12:52:48;;;;;;;29.92;16.60;;;;;;;;;;5104323;27;20031;-71
2024/03/04 12:55:19;;;;;;;39.35;19.25;;;;;;;;;;5101816;27;20028;-71
2024/03/04 12:57:45;;;;;;;31.33;17.48;;;;;;;;;;5085544;27;20395;-71
2024/03/04 13:00:13;;;;;;;31.08;16.15;;;;;;;;;;5124102;27;20095;-72
2024/03/04 13:02:45;;;;;;;31.33;17.52;;;;;;;;;;5121340;27;20102;-71
2024/03/04 13:05:13;;;;;;;34.10;16.02;;;;;;;;;;5100609;27;20050;-71
2024/03/04 13:07:39;;;;;;;30.00;16.35;;;;;;;;;;5098097;27;20475;-71
2024/03/04 13:10:07;;;;;;;34.38;16.67;;;;;;;;;;5100797;27;20114;-71
2024/03/04 13:12:36;;;;;;;30.40;15.63;;;;;;;;;;5100974;27;20502;-72
2024/03/04 13:15:06;;;;;;;25.60;16.52;;;;;;;;;;5123758;27;20028;-71
2024/03/04 13:17:35;;;;;;;31.25;15.85;;;;;;;;;;5113538;27;20386;-72
2024/03/04 13:20:08;;;;;;;35.40;16.50;;;;;;;;;;5088276;27;20027;-70
2024/03/04 13:22:47;;;;;;;31.50;16.45;;;;;;;;;;5113003;27;20104;-70
2024/03/04 13:25:15;;;;;;;29.27;15.13;;;;;;;;;;5119033;27;20217;-72
2024/03/04 13:27:41;;;;;;;30.90;17.23;;;;;;;;;;5101611;27;20112;-72
2024/03/04 13:30:08;;;;;;;30.52;15.75;;;;;;;;;;5107836;27;20050;-71
2024/03/04 13:32:34;;;;;;;33.38;15.73;;;;;;;;;;5102296;27;20023;-71
2024/03/04 13:35:00;;;;;;;29.55;14.85;;;;;;;;;;5119103;27;20023;-72
2024/03/04 13:37:26;;;;;;;28.33;15.80;;;;;;;;;;5105558;27;20106;-70
2024/03/04 13:39:53;;;;;;;33.72;16.27;;;;;;;;;;5103589;27;20399;-71
2024/03/04 13:42:19;;;;;;;32.95;17.00;;;;;;;;;;5093207;27;20027;-71
2024/03/04 13:44:46;;;;;;;30.50;16.38;;;;;;;;;;5097700;27;20666;-70
2024/03/04 13:47:12;;;;;;;27.17;15.13;;;;;;;;;;5085553;28;20371;-70
2024/03/04 13:49:38;;;;;;;28.88;16.42;;;;;;;;;;5098961;27;20081;-69
2024/03/04 13:52:04;;;;;;;29.70;15.18;;;;;;;;;;5093215;27;20561;-71
2024/03/04 13:54:33;;;;;;;24.23;14.57;;;;;;;;;;5109595;27;20023;-72
2024/03/04 13:57:03;;;;;;;29.45;16.33;;;;;;;;;;5098837;27;20499;-70
2024/03/04 13:59:29;;;;;;;29.70;15.82;;;;;;;;;;5092413;27;20084;-71
2024/03/04 14:01:57;;;;;;;31.95;14.50;;;;;;;;;;5110031;27;20072;-72
2024/03/04 14:04:27;;;;;;;22.25;13.07;;;;;;;;;;5093659;27;20080;-72
2024/03/04 14:06:55;;;;;;;24.92;12.05;;;;;;;;;;5099679;27;20032;-71
2024/03/04 14:09:21;;;;;;;19.13;12.27;;;;;;;;;;5080430;28;20027;-70
2024/03/04 14:11:48;;;;;;;25.75;13.27;;;;;;;;;;5088533;27;20372;-71
2024/03/04 14:14:15;;;;;;;25.02;13.50;;;;;;;;;;5101008;27;20399;-70
2024/03/04 14:16:43;;;;;;;24.48;14.55;;;;;;;;;;5059607;27;20015;-71
2024/03/04 14:19:09;;;;;;;25.08;13.90;;;;;;;;;;5105120;27;20360;-73